createdAt,value
2023-01-17T00:00:32.694Z,97564.97
2023-01-17T00:02:59.141Z,97574.88
2023-01-17T00:05:43.974Z,97587.19
2023-01-17T00:08:31.988Z,97592.16
2023-01-17T00:10:58.613Z,97593.16
2023-01-17T00:13:24.942Z,97597.81
2023-01-17T00:15:52.092Z,97603.09
2023-01-17T00:18:18.536Z,97613.72
2023-01-17T00:21:03.651Z,97618.50
2023-01-17T00:23:48.719Z,97624.16
2023-01-17T00:26:18.300Z,97627.63
2023-01-17T00:28:45.863Z,97628.09
2023-01-17T00:31:14.455Z,97638.22
2023-01-17T00:33:40.783Z,97626.44
2023-01-17T00:36:08.340Z,97630.63
2023-01-17T00:38:37.445Z,97630.59
2023-01-17T00:41:06.465Z,97643.69
2023-01-17T00:43:51.731Z,97634.38
2023-01-17T00:46:36.602Z,97635.22
2023-01-17T00:49:22.274Z,97644.00
2023-01-17T00:52:06.956Z,97640.50
2023-01-17T00:54:51.830Z,97650.91
2023-01-17T00:57:36.796Z,97656.00
2023-01-17T01:00:22.620Z,97665.59
2023-01-17T01:03:07.575Z,97664.31
2023-01-17T01:09:42.902Z,97676.38
2023-01-17T01:12:27.856Z,97680.19
2023-01-17T01:15:12.639Z,97682.13
2023-01-17T01:17:57.411Z,97687.09
2023-01-17T01:20:42.732Z,97691.91
2023-01-17T01:23:27.588Z,97686.78
2023-01-17T01:26:12.400Z,97690.75
2023-01-17T01:28:57.468Z,97696.34
2023-01-17T01:31:42.258Z,97715.22
2023-01-17T01:34:08.695Z,97719.34
2023-01-17T01:36:34.986Z,97729.66
2023-01-17T01:39:01.569Z,97725.94
2023-01-17T01:41:27.885Z,97741.81
2023-01-17T01:43:55.833Z,97740.63
2023-01-17T01:46:54.703Z,97745.63
2023-01-17T01:49:24.817Z,97751.63
2023-01-17T01:51:55.837Z,97757.91
2023-01-17T01:54:29.398Z,97766.19
2023-01-17T01:56:58.095Z,97759.41
2023-01-17T01:59:25.726Z,97763.41
2023-01-17T02:01:55.617Z,97761.63
2023-01-17T02:04:22.804Z,97769.38
2023-01-17T02:06:55.354Z,97778.63
2023-01-17T02:09:21.760Z,97771.88
2023-01-17T02:11:49.524Z,97777.13
2023-01-17T02:14:17.502Z,97782.63
2023-01-17T02:17:03.812Z,97793.56
2023-01-17T02:19:57.706Z,97792.56
2023-01-17T02:22:52.102Z,97807.91
2023-01-17T02:25:36.505Z,97805.31
2023-01-17T02:28:40.228Z,97806.31
2023-01-17T02:31:20.336Z,97806.25
2023-01-17T02:34:20.357Z,97798.78
2023-01-17T02:36:59.883Z,97796.91
2023-01-17T02:39:36.759Z,97800.19
2023-01-17T02:42:33.952Z,97803.44
2023-01-17T02:45:02.408Z,97803.13
2023-01-17T02:47:31.408Z,97809.78
2023-01-17T02:50:06.543Z,97810.56
2023-01-17T02:53:10.772Z,97799.59
2023-01-17T02:55:55.915Z,97809.16
2023-01-17T02:58:52.539Z,97817.03
2023-01-17T03:01:48.566Z,97813.91
2023-01-17T03:04:28.134Z,97809.38
2023-01-17T03:07:00.353Z,97806.97
2023-01-17T03:09:29.416Z,97815.19
2023-01-17T03:11:55.892Z,97818.75
2023-01-17T03:14:22.193Z,97823.00
2023-01-17T03:16:48.806Z,97812.84
2023-01-17T03:19:16.003Z,97818.28
2023-01-17T03:21:42.634Z,97814.66
2023-01-17T03:24:08.965Z,97824.56
2023-01-17T03:26:35.273Z,97821.38
2023-01-17T03:29:02.116Z,97824.47
2023-01-17T03:31:28.445Z,97832.69
2023-01-17T03:33:54.755Z,97836.22
2023-01-17T03:36:21.128Z,97840.50
2023-01-17T03:38:47.522Z,97855.44
2023-01-17T03:41:13.852Z,97845.34
2023-01-17T03:43:40.248Z,97848.56
2023-01-17T03:46:17.407Z,97848.75
2023-01-17T03:48:43.737Z,97849.06
2023-01-17T03:51:10.031Z,97860.88
2023-01-17T03:53:36.371Z,97857.25
2023-01-17T03:56:02.781Z,97851.84
2023-01-17T03:58:29.080Z,97850.88
2023-01-17T04:00:55.620Z,97853.13
2023-01-17T04:03:22.297Z,97847.53
2023-01-17T04:05:48.575Z,97851.31
2023-01-17T04:08:14.908Z,97854.41
2023-01-17T04:10:41.462Z,97845.91
2023-01-17T04:13:07.731Z,97843.31
2023-01-17T04:15:34.249Z,97840.38
2023-01-17T04:18:00.882Z,97842.22
2023-01-17T04:20:35.668Z,97850.13
2023-01-17T04:23:02.482Z,97854.44
2023-01-17T04:25:30.706Z,97849.72
2023-01-17T04:27:58.786Z,97852.34
2023-01-17T04:30:25.832Z,97858.47
2023-01-17T04:32:52.157Z,97856.69
2023-01-17T04:35:18.473Z,97860.44
2023-01-17T04:37:44.851Z,97864.31
2023-01-17T04:40:11.800Z,97870.09
2023-01-17T04:42:41.362Z,97881.50
2023-01-17T04:45:08.248Z,97880.06
2023-01-17T04:47:34.557Z,97880.19
2023-01-17T04:50:00.911Z,97882.38
2023-01-17T04:52:27.226Z,97884.88
2023-01-17T04:54:53.903Z,97890.16
2023-01-17T04:57:20.634Z,97893.94
2023-01-17T04:59:47.257Z,97890.16
2023-01-17T05:02:14.229Z,97891.97
2023-01-17T05:04:40.680Z,97892.78
2023-01-17T05:07:07.090Z,97896.13
2023-01-17T05:09:33.532Z,97895.03
2023-01-17T05:11:59.880Z,97897.75
2023-01-17T05:14:26.337Z,97895.25
2023-01-17T05:16:58.810Z,97898.69
2023-01-17T05:19:26.681Z,97892.72
2023-01-17T05:21:53.044Z,97902.41
2023-01-17T05:24:19.549Z,97909.09
2023-01-17T05:26:46.305Z,97904.06
2023-01-17T05:29:12.620Z,97911.16
2023-01-17T05:31:39.035Z,97918.56
2023-01-17T05:34:05.372Z,97918.25
2023-01-17T05:36:31.699Z,97920.91
2023-01-17T05:38:58.053Z,97924.25
2023-01-17T05:41:24.376Z,97914.38
2023-01-17T05:43:50.644Z,97912.00
2023-01-17T05:46:17.960Z,97912.56
2023-01-17T05:48:44.334Z,97912.09
2023-01-17T05:51:10.670Z,97917.69
2023-01-17T05:53:37.047Z,97917.44
2023-01-17T05:56:03.436Z,97923.03
2023-01-17T05:58:29.848Z,97919.09
2023-01-17T06:00:56.408Z,97921.22
2023-01-17T06:03:22.778Z,97921.50
2023-01-17T06:05:50.052Z,97918.88
2023-01-17T06:08:16.450Z,97915.25
2023-01-17T06:10:42.760Z,97918.25
2023-01-17T06:13:12.308Z,97915.72
2023-01-17T06:15:39.444Z,97915.88
2023-01-17T06:18:11.862Z,97927.44
2023-01-17T06:20:38.532Z,97929.94
2023-01-17T06:23:07.412Z,97930.88
2023-01-17T06:25:39.142Z,97923.25
2023-01-17T06:28:08.738Z,97909.75
2023-01-17T06:30:35.858Z,97917.28
2023-01-17T06:33:02.464Z,97923.56
2023-01-17T06:35:29.234Z,97926.50
2023-01-17T06:37:58.059Z,97923.19
2023-01-17T06:40:25.577Z,97935.56
2023-01-17T06:42:52.012Z,97924.44
2023-01-17T06:45:19.341Z,97929.03
2023-01-17T06:47:46.245Z,97928.72
2023-01-17T06:50:14.869Z,97934.31
2023-01-17T06:52:42.066Z,97924.88
2023-01-17T06:55:09.571Z,97929.47
2023-01-17T06:57:36.173Z,97931.53
2023-01-17T07:00:04.970Z,97927.38
2023-01-17T07:02:31.278Z,97932.34
2023-01-17T07:04:57.682Z,97925.13
2023-01-17T07:07:24.754Z,97922.47
2023-01-17T07:09:51.069Z,97919.44
2023-01-17T07:12:17.397Z,97934.03
2023-01-17T07:14:43.739Z,97936.44
2023-01-17T07:17:10.201Z,97937.25
2023-01-17T07:19:37.198Z,97941.16
2023-01-17T07:22:03.503Z,97932.56
2023-01-17T07:24:29.797Z,97924.63
2023-01-17T07:26:56.210Z,97931.72
2023-01-17T07:29:22.594Z,97929.50
2023-01-17T07:31:48.992Z,97933.69
2023-01-17T07:34:15.413Z,97920.31
2023-01-17T07:36:41.722Z,97926.13
2023-01-17T07:39:09.982Z,97916.94
2023-01-17T07:41:41.108Z,97906.13
2023-01-17T07:44:11.864Z,97904.31
2023-01-17T07:46:38.310Z,97903.19
2023-01-17T07:49:04.853Z,97901.81
2023-01-17T07:51:31.141Z,97905.31
2023-01-17T07:53:57.659Z,97896.72
2023-01-17T07:56:24.422Z,97899.47
2023-01-17T07:58:50.843Z,97909.47
2023-01-17T08:01:17.566Z,97890.72
2023-01-17T08:03:48.118Z,97890.59
2023-01-17T08:09:12.142Z,97891.03
2023-01-17T08:11:38.416Z,97880.03
2023-01-17T08:14:05.126Z,97885.31
2023-01-17T08:16:31.611Z,97875.72
2023-01-17T08:18:58.003Z,97859.50
2023-01-17T08:21:24.437Z,97870.06
2023-01-17T08:23:52.427Z,97855.47
2023-01-17T08:26:23.662Z,97855.63
2023-01-17T08:28:56.073Z,97861.06
2023-01-17T08:31:22.913Z,97857.28
2023-01-17T08:33:49.253Z,97854.97
2023-01-17T08:36:15.648Z,97853.56
2023-01-17T08:38:41.963Z,97855.91
2023-01-17T08:41:08.320Z,97859.13
2023-01-17T08:43:34.698Z,97861.72
2023-01-17T08:46:01.486Z,97860.91
2023-01-17T08:48:27.887Z,97863.97
2023-01-17T08:50:54.237Z,97862.72
2023-01-17T08:53:23.008Z,97855.88
2023-01-17T08:55:56.689Z,97863.22
2023-01-17T08:58:23.253Z,97867.09
2023-01-17T09:00:49.749Z,97870.41
2023-01-17T09:03:16.246Z,97852.63
2023-01-17T09:05:42.556Z,97870.56
2023-01-17T09:08:08.915Z,97861.91
2023-01-17T09:10:35.235Z,97864.31
2023-01-17T09:13:01.573Z,97868.84
2023-01-17T09:15:27.995Z,97861.84
2023-01-17T09:17:57.228Z,97866.13
2023-01-17T09:20:24.619Z,97857.56
2023-01-17T09:22:51.405Z,97867.25
2023-01-17T09:25:17.852Z,97872.81
2023-01-17T09:27:45.698Z,97872.44
2023-01-17T09:30:12.463Z,97866.16
2023-01-17T09:32:38.846Z,97874.25
2023-01-17T09:35:07.248Z,97872.38
2023-01-17T09:37:33.658Z,97876.22
2023-01-17T09:39:59.970Z,97882.22
2023-01-17T09:42:29.018Z,97883.88
2023-01-17T09:44:56.138Z,97889.41
2023-01-17T09:47:34.463Z,97891.66
2023-01-17T09:50:15.571Z,97888.25
2023-01-17T09:52:42.341Z,97896.94
2023-01-17T09:55:15.374Z,97894.44
2023-01-17T09:58:00.312Z,97895.59
2023-01-17T10:00:32.573Z,97894.72
2023-01-17T10:03:17.890Z,97890.22
2023-01-17T10:06:10.465Z,97895.97
2023-01-17T10:08:39.657Z,97897.16
2023-01-17T10:11:08.893Z,97886.13
2023-01-17T10:14:01.658Z,97895.81
2023-01-17T10:16:40.373Z,97893.13
2023-01-17T10:19:29.254Z,97896.41
2023-01-17T10:22:17.015Z,97888.63
2023-01-17T10:25:04.384Z,97886.28
2023-01-17T10:27:37.648Z,97880.34
2023-01-17T10:30:16.459Z,97876.22
2023-01-17T10:32:48.071Z,97877.25
2023-01-17T10:35:27.176Z,97893.53
2023-01-17T10:37:56.721Z,97888.63
2023-01-17T10:40:44.605Z,97879.22
2023-01-17T10:44:03.691Z,97879.97
2023-01-17T10:46:38.182Z,97880.44
2023-01-17T10:49:04.681Z,97877.13
2023-01-17T10:51:42.838Z,97887.19
2023-01-17T10:54:27.606Z,97881.78
2023-01-17T10:56:54.027Z,97881.09
2023-01-17T10:59:33.428Z,97877.78
2023-01-17T11:02:06.686Z,97889.56
2023-01-17T11:04:40.146Z,97880.78
2023-01-17T11:07:15.638Z,97881.56
2023-01-17T11:09:43.654Z,97875.72
2023-01-17T11:12:20.717Z,97876.97
2023-01-17T11:15:08.872Z,97870.31
2023-01-17T11:17:53.080Z,97860.91
2023-01-17T11:20:35.433Z,97866.38
2023-01-17T11:23:11.441Z,97859.91
2023-01-17T11:25:37.900Z,97857.59
2023-01-17T11:28:08.222Z,97854.78
2023-01-17T11:30:34.649Z,97852.25
2023-01-17T11:33:04.616Z,97842.91
2023-01-17T11:35:31.709Z,97847.19
2023-01-17T11:38:05.024Z,97839.75
2023-01-17T11:40:43.813Z,97841.84
2023-01-17T11:43:21.162Z,97840.59
2023-01-17T11:46:02.041Z,97841.66
2023-01-17T11:48:35.306Z,97827.06
2023-01-17T11:51:02.983Z,97827.97
2023-01-17T11:53:33.301Z,97824.66
2023-01-17T11:56:09.803Z,97812.53
2023-01-17T11:58:40.303Z,97820.06
2023-01-17T12:01:21.251Z,97817.44
2023-01-17T12:04:12.089Z,97811.88
2023-01-17T12:07:03.148Z,97813.38
2023-01-17T12:09:35.454Z,97808.00
2023-01-17T12:13:07.114Z,97804.25
2023-01-17T12:16:00.194Z,97803.84
2023-01-17T12:18:51.603Z,97795.91
2023-01-17T12:21:30.930Z,97787.88
2023-01-17T12:24:21.621Z,97790.34
2023-01-17T12:26:59.437Z,97775.25
2023-01-17T12:29:58.564Z,97779.75
2023-01-17T12:32:43.440Z,97777.03
2023-01-17T12:35:16.828Z,97770.38
2023-01-17T12:37:49.441Z,97766.91
2023-01-17T12:40:32.625Z,97760.88
2023-01-17T12:43:08.267Z,97759.41
2023-01-17T12:45:42.459Z,97748.94
2023-01-17T12:48:16.998Z,97752.75
2023-01-17T12:50:52.218Z,97739.50
2023-01-17T12:53:40.204Z,97744.06
2023-01-17T12:56:18.296Z,97738.34
2023-01-17T12:58:54.263Z,97738.22
2023-01-17T13:01:32.102Z,97735.97
2023-01-17T13:04:24.328Z,97737.91
2023-01-17T13:07:06.605Z,97731.28
2023-01-17T13:09:57.050Z,97736.78
2023-01-17T13:12:28.580Z,97737.53
2023-01-17T13:14:57.633Z,97740.84
2023-01-17T13:17:39.185Z,97738.84
2023-01-17T13:20:31.683Z,97739.66
2023-01-17T13:23:06.515Z,97728.38
2023-01-17T13:25:46.594Z,97727.59
2023-01-17T13:28:27.933Z,97726.94
2023-01-17T13:31:33.901Z,97724.78
2023-01-17T13:34:19.040Z,97729.09
2023-01-17T13:37:04.518Z,97726.47
2023-01-17T13:40:01.972Z,97728.00
2023-01-17T13:42:44.423Z,97727.50
2023-01-17T13:45:21.079Z,97737.47
2023-01-17T13:47:47.504Z,97739.97
2023-01-17T13:50:38.483Z,97735.34
2023-01-17T13:53:36.790Z,97739.16
2023-01-17T13:56:08.804Z,97738.00
2023-01-17T13:58:51.469Z,97742.34
2023-01-17T14:01:24.070Z,97748.31
2023-01-17T14:03:50.716Z,97733.84
2023-01-17T14:06:35.473Z,97739.34
2023-01-17T14:09:15.352Z,97734.72
2023-01-17T14:12:04.986Z,97730.75
2023-01-17T14:14:35.343Z,97719.78
2023-01-17T14:17:23.147Z,97723.63
2023-01-17T14:19:51.972Z,97719.81
2023-01-17T14:22:18.216Z,97716.16
2023-01-17T14:25:14.745Z,97708.88
2023-01-17T14:27:49.817Z,97699.91
2023-01-17T14:30:24.941Z,97703.38
2023-01-17T14:33:01.035Z,97706.22
2023-01-17T14:35:39.218Z,97702.22
2023-01-17T14:38:24.082Z,97701.56
2023-01-17T14:40:54.838Z,97702.06
2023-01-17T14:43:23.922Z,97702.75
2023-01-17T14:45:57.510Z,97699.59
2023-01-17T14:48:24.490Z,97705.41
2023-01-17T14:50:54.173Z,97711.19
2023-01-17T14:53:31.361Z,97714.03
2023-01-17T14:56:11.538Z,97706.06
2023-01-17T14:58:39.148Z,97712.03
2023-01-17T15:01:11.795Z,97722.97
2023-01-17T15:03:45.207Z,97725.47
2023-01-17T15:06:17.354Z,97725.16
2023-01-17T15:08:43.840Z,97729.94
2023-01-17T15:11:25.455Z,97728.25
2023-01-17T15:13:54.966Z,97734.56
2023-01-17T15:16:28.918Z,97728.91
2023-01-17T15:18:57.182Z,97724.75
2023-01-17T15:21:42.222Z,97736.84
2023-01-17T15:24:34.232Z,97727.69
2023-01-17T15:27:01.695Z,97730.66
2023-01-17T15:29:33.642Z,97727.84
2023-01-17T15:32:02.969Z,97733.44
2023-01-17T15:34:44.611Z,97733.41
2023-01-17T15:37:32.557Z,97727.94
2023-01-17T15:40:25.872Z,97732.72
2023-01-17T15:42:59.262Z,97734.34
2023-01-17T15:45:30.031Z,97731.84
2023-01-17T15:47:57.498Z,97732.19
2023-01-17T15:50:30.555Z,97737.28
2023-01-17T15:53:06.688Z,97732.97
2023-01-17T15:55:39.968Z,97730.13
2023-01-17T15:58:24.221Z,97733.03
2023-01-17T16:00:50.639Z,97732.00
2023-01-17T16:03:29.168Z,97740.63
2023-01-17T16:05:57.865Z,97741.25
2023-01-17T16:08:28.873Z,97741.88
2023-01-17T16:11:01.931Z,97741.66
2023-01-17T16:13:30.733Z,97743.81
2023-01-17T16:16:23.770Z,97744.75
2023-01-17T16:18:57.657Z,97739.63
2023-01-17T16:21:29.661Z,97736.91
2023-01-17T16:23:56.610Z,97736.25
2023-01-17T16:26:23.584Z,97736.97
2023-01-17T16:28:50.930Z,97728.94
2023-01-17T16:31:17.852Z,97733.81
2023-01-17T16:33:45.968Z,97732.44
2023-01-17T16:36:14.918Z,97740.38
2023-01-17T16:38:42.202Z,97730.94
2023-01-17T16:41:08.663Z,97734.34
2023-01-17T16:43:35.012Z,97740.09
2023-01-17T16:46:01.583Z,97742.88
2023-01-17T16:48:27.979Z,97747.81
2023-01-17T16:50:54.480Z,97742.88
2023-01-17T16:53:24.695Z,97734.94
2023-01-17T16:55:56.360Z,97734.59
2023-01-17T16:58:23.173Z,97735.84
2023-01-17T17:00:49.553Z,97723.38
2023-01-17T17:03:20.593Z,97732.75
2023-01-17T17:05:59.389Z,97733.03
2023-01-17T17:08:28.598Z,97738.31
2023-01-17T17:10:55.544Z,97738.53
2023-01-17T17:13:21.875Z,97739.53
2023-01-17T17:15:48.928Z,97737.63
2023-01-17T17:18:17.755Z,97737.09
2023-01-17T17:20:45.047Z,97737.38
2023-01-17T17:23:11.533Z,97745.03
2023-01-17T17:25:38.031Z,97738.50
2023-01-17T17:28:05.561Z,97741.00
2023-01-17T17:30:32.087Z,97747.25
2023-01-17T17:32:58.487Z,97742.81
2023-01-17T17:35:24.826Z,97746.28
2023-01-17T17:37:51.476Z,97736.38
2023-01-17T17:40:17.987Z,97740.47
2023-01-17T17:42:44.297Z,97751.03
2023-01-17T17:45:10.983Z,97758.03
2023-01-17T17:47:37.288Z,97756.91
2023-01-17T17:50:03.938Z,97761.34
2023-01-17T17:52:30.324Z,97758.19
2023-01-17T17:54:56.644Z,97761.66
2023-01-17T17:57:23.029Z,97768.59
2023-01-17T17:59:49.363Z,97759.44
2023-01-17T18:02:16.329Z,97768.19
2023-01-17T18:04:42.768Z,97761.56
2023-01-17T18:07:09.119Z,97758.22
2023-01-17T18:09:35.450Z,97775.75
2023-01-17T18:12:03.227Z,97770.72
2023-01-17T18:14:30.038Z,97773.09
2023-01-17T18:16:57.121Z,97773.38
2023-01-17T18:19:25.506Z,97771.41
2023-01-17T18:21:52.661Z,97769.38
2023-01-17T18:24:24.395Z,97771.72
2023-01-17T18:26:53.852Z,97772.38
2023-01-17T18:29:21.998Z,97778.97
2023-01-17T18:31:52.909Z,97782.28
2023-01-17T18:34:23.643Z,97782.28
2023-01-17T18:36:51.697Z,97781.97
2023-01-17T18:39:21.041Z,97790.00
2023-01-17T18:41:47.793Z,97786.19
2023-01-17T18:44:14.125Z,97791.06
2023-01-17T18:46:42.055Z,97795.50
2023-01-17T18:49:12.643Z,97791.22
2023-01-17T18:51:39.054Z,97794.13
2023-01-17T18:54:07.206Z,97802.47
2023-01-17T18:56:35.005Z,97808.16
2023-01-17T18:59:02.592Z,97803.44
2023-01-17T19:01:31.649Z,97809.97
2023-01-17T19:04:00.863Z,97805.97
2023-01-17T19:06:30.255Z,97811.78
2023-01-17T19:08:58.008Z,97820.13
2023-01-17T19:11:24.773Z,97827.22
2023-01-17T19:13:52.507Z,97826.66
2023-01-17T19:16:27.834Z,97832.34
2023-01-17T19:18:55.919Z,97832.91
2023-01-17T19:21:24.428Z,97835.16
2023-01-17T19:23:51.094Z,97842.75
2023-01-17T19:26:20.057Z,97839.88
2023-01-17T19:28:48.588Z,97845.41
2023-01-17T19:31:17.837Z,97852.34
2023-01-17T19:33:45.821Z,97852.81
2023-01-17T19:36:18.413Z,97852.66
2023-01-17T19:39:02.980Z,97859.88
2023-01-17T19:41:30.688Z,97860.69
2023-01-17T19:43:59.319Z,97852.34
2023-01-17T19:46:27.139Z,97853.19
2023-01-17T19:48:55.520Z,97857.38
2023-01-17T19:51:22.439Z,97856.09
2023-01-17T19:53:48.797Z,97861.38
2023-01-17T19:56:17.938Z,97866.41
2023-01-17T19:58:45.800Z,97870.69
2023-01-17T20:01:14.668Z,97868.16
2023-01-17T20:03:43.633Z,97878.59
2023-01-17T20:06:14.890Z,97871.66
2023-01-17T20:08:41.556Z,97864.84
2023-01-17T20:11:10.755Z,97870.09
2023-01-17T20:13:37.165Z,97869.13
2023-01-17T20:16:09.138Z,97862.06
2023-01-17T20:18:36.524Z,97857.19
2023-01-17T20:21:12.976Z,97862.34
2023-01-17T20:23:42.733Z,97864.81
2023-01-17T20:26:10.901Z,97856.50
2023-01-17T20:28:39.323Z,97860.53
2023-01-17T20:31:08.973Z,97859.16
2023-01-17T20:33:36.272Z,97861.31
2023-01-17T20:36:10.193Z,97862.06
2023-01-17T20:38:45.172Z,97863.16
2023-01-17T20:41:23.724Z,97859.84
2023-01-17T20:43:52.412Z,97871.38
2023-01-17T20:46:20.913Z,97869.72
2023-01-17T20:48:49.586Z,97858.28
2023-01-17T20:51:17.325Z,97872.63
2023-01-17T20:53:45.156Z,97876.81
2023-01-17T20:56:13.871Z,97873.03
2023-01-17T20:58:40.611Z,97869.41
2023-01-17T21:01:09.596Z,97879.00
2023-01-17T21:03:37.481Z,97866.63
2023-01-17T21:06:09.742Z,97870.53
2023-01-17T21:08:38.921Z,97869.84
2023-01-17T21:11:06.286Z,97881.22
2023-01-17T21:13:32.813Z,97875.94
2023-01-17T21:15:59.659Z,97875.25
2023-01-17T21:18:28.116Z,97868.72
2023-01-17T21:20:54.532Z,97877.28
2023-01-17T21:23:23.351Z,97878.41
2023-01-17T21:25:55.408Z,97869.69
2023-01-17T21:28:22.930Z,97873.44
2023-01-17T21:30:52.071Z,97872.78
2023-01-17T21:33:19.809Z,97874.31
2023-01-17T21:35:46.248Z,97878.72
2023-01-17T21:38:13.818Z,97867.94
2023-01-17T21:40:41.826Z,97877.94
2023-01-17T21:43:08.167Z,97883.06
2023-01-17T21:45:41.978Z,97882.19
2023-01-17T21:48:14.557Z,97875.72
2023-01-17T21:50:41.044Z,97877.25
2023-01-17T21:53:09.919Z,97874.06
2023-01-17T21:55:56.132Z,97875.88
2023-01-17T21:58:41.421Z,97886.53
2023-01-17T22:01:15.546Z,97884.88
2023-01-17T22:03:42.632Z,97884.59
2023-01-17T22:06:10.121Z,97882.66
2023-01-17T22:08:37.209Z,97890.03
2023-01-17T22:11:14.785Z,97891.28
2023-01-17T22:13:42.622Z,97891.00
2023-01-17T22:16:12.832Z,97888.50
2023-01-17T22:18:40.450Z,97902.38
2023-01-17T22:21:12.209Z,97896.72
2023-01-17T22:23:39.122Z,97902.53
2023-01-17T22:26:08.678Z,97895.44
2023-01-17T22:28:35.794Z,97900.03
2023-01-17T22:31:13.932Z,97897.41
2023-01-17T22:33:42.695Z,97893.38
2023-01-17T22:36:10.375Z,97892.25
2023-01-17T22:38:36.704Z,97896.41
2023-01-17T22:41:08.057Z,97891.16
2023-01-17T22:43:37.386Z,97898.50
2023-01-17T22:46:06.152Z,97892.25
2023-01-17T22:48:34.525Z,97892.38
2023-01-17T22:51:02.411Z,97886.25
2023-01-17T22:53:29.191Z,97872.09
2023-01-17T22:56:20.035Z,97888.47
2023-01-17T22:58:48.582Z,97887.72
2023-01-17T23:01:17.351Z,97879.56
2023-01-17T23:03:47.161Z,97887.34
2023-01-17T23:06:15.073Z,97895.16
2023-01-17T23:08:44.603Z,97893.00
2023-01-17T23:11:42.700Z,97886.78
2023-01-17T23:14:53.600Z,97877.19
2023-01-17T23:17:40.807Z,97887.72
2023-01-17T23:20:08.648Z,97887.84
2023-01-17T23:22:35.215Z,97897.59
2023-01-17T23:25:10.898Z,97885.78
2023-01-17T23:28:04.445Z,97880.63
2023-01-17T23:30:34.407Z,97892.06
2023-01-17T23:33:06.465Z,97884.81
2023-01-17T23:35:35.542Z,97893.75
2023-01-17T23:38:21.337Z,97886.78
2023-01-17T23:41:07.705Z,97886.78
2023-01-17T23:43:34.842Z,97889.69
2023-01-17T23:46:02.109Z,97882.59
2023-01-17T23:48:28.774Z,97886.03
2023-01-17T23:51:01.007Z,97878.78
2023-01-17T23:53:28.011Z,97877.97
2023-01-17T23:55:56.421Z,97882.13
2023-01-17T23:58:25.332Z,97878.69
